createdAt,value
2018-10-01T00:00:22.011Z,20.18
2018-10-01T00:01:22.070Z,20.18
2018-10-01T00:02:22.024Z,20.15
2018-10-01T00:03:22.076Z,20.15
2018-10-01T00:04:22.071Z,20.15
2018-10-01T00:05:22.083Z,20.18
2018-10-01T00:06:22.204Z,20.10
2018-10-01T00:07:22.113Z,20.21
2018-10-01T00:08:22.128Z,20.17
2018-10-01T00:09:22.126Z,20.07
2018-10-01T00:10:22.149Z,20.18
2018-10-01T00:11:22.316Z,20.14
2018-10-01T00:12:22.175Z,20.14
2018-10-01T00:13:22.209Z,20.11
2018-10-01T00:14:22.196Z,20.17
2018-10-01T00:15:22.276Z,20.17
2018-10-01T00:16:22.333Z,20.17
2018-10-01T00:17:22.269Z,20.21
2018-10-01T00:18:22.274Z,20.19
2018-10-01T00:19:22.299Z,20.18
2018-10-01T00:20:22.354Z,20.15
2018-10-01T00:21:22.487Z,20.18
2018-10-01T00:22:22.329Z,20.14
2018-10-01T00:23:22.336Z,20.24
2018-10-01T00:24:22.355Z,20.18
2018-10-01T00:25:22.362Z,20.33
2018-10-01T00:26:22.555Z,20.26
2018-10-01T00:27:22.447Z,20.29
2018-10-01T00:28:22.415Z,20.30
2018-10-01T00:29:22.460Z,20.27
2018-10-01T00:30:22.443Z,20.29
2018-10-01T00:31:22.610Z,20.22
2018-10-01T00:32:22.486Z,20.32
2018-10-01T00:33:22.498Z,20.30
2018-10-01T00:34:22.527Z,20.24
2018-10-01T00:35:22.528Z,20.32
2018-10-01T00:36:22.698Z,20.29
2018-10-01T00:37:22.553Z,20.21
2018-10-01T00:38:22.596Z,20.22
2018-10-01T00:39:22.585Z,20.33
2018-10-01T00:40:22.616Z,20.24
2018-10-01T00:41:22.665Z,20.29
2018-10-01T00:42:22.755Z,20.29
2018-10-01T00:43:22.691Z,20.24
2018-10-01T00:44:22.658Z,20.29
2018-10-01T00:45:22.732Z,20.32
2018-10-01T00:46:22.854Z,20.27
2018-10-01T00:47:22.714Z,20.26
2018-10-01T00:48:22.715Z,20.22
2018-10-01T00:49:22.744Z,20.24
2018-10-01T00:50:22.772Z,20.27
2018-10-01T00:51:22.924Z,20.24
2018-10-01T00:52:22.787Z,20.17
2018-10-01T00:53:22.800Z,20.26
2018-10-01T00:54:22.812Z,20.24
2018-10-01T00:55:22.835Z,20.19
2018-10-01T00:56:22.999Z,20.14
2018-10-01T00:57:22.873Z,20.11
2018-10-01T00:58:22.877Z,20.15
2018-10-01T00:59:22.883Z,20.17
2018-10-01T01:00:22.915Z,20.15
2018-10-01T01:01:23.076Z,20.14
2018-10-01T01:02:22.950Z,20.11
2018-10-01T01:03:22.953Z,20.18
2018-10-01T01:04:22.976Z,20.07
2018-10-01T01:05:22.987Z,20.07
2018-10-01T01:06:23.144Z,20.08
2018-10-01T01:07:23.024Z,20.02
2018-10-01T01:08:23.041Z,20.03
2018-10-01T01:09:23.063Z,20.00
2018-10-01T01:10:23.054Z,20.07
2018-10-01T01:11:23.228Z,20.08
2018-10-01T01:12:23.087Z,20.08
2018-10-01T01:13:23.088Z,20.03
2018-10-01T01:14:23.109Z,20.04
2018-10-01T01:15:23.152Z,19.99
2018-10-01T01:16:23.208Z,20.02
2018-10-01T01:17:23.175Z,20.03
2018-10-01T01:18:23.176Z,20.02
2018-10-01T01:19:23.350Z,20.03
2018-10-01T01:20:23.211Z,20.03
2018-10-01T01:21:23.232Z,19.92
2018-10-01T01:22:23.256Z,20.02
2018-10-01T01:23:23.263Z,20.08
2018-10-01T01:24:23.536Z,20.03
2018-10-01T01:25:23.312Z,19.99
2018-10-01T01:26:23.322Z,19.94
2018-10-01T01:27:23.318Z,19.97
2018-10-01T01:28:23.328Z,19.94
2018-10-01T01:29:23.500Z,20.03
2018-10-01T01:30:23.345Z,19.94
2018-10-01T01:31:23.395Z,19.92
2018-10-01T01:32:23.373Z,19.93
2018-10-01T01:33:23.447Z,19.96
2018-10-01T01:34:23.453Z,19.94
2018-10-01T01:35:23.436Z,20.00
2018-10-01T01:36:23.440Z,19.93
2018-10-01T01:37:23.476Z,19.93
2018-10-01T01:38:23.630Z,19.99
2018-10-01T01:39:23.515Z,19.94
2018-10-01T01:40:23.493Z,19.89
2018-10-01T01:41:23.551Z,19.93
2018-10-01T01:42:23.555Z,19.81
2018-10-01T01:43:23.699Z,19.78
2018-10-01T01:44:23.565Z,19.84
2018-10-01T01:45:23.597Z,19.87
2018-10-01T01:46:23.609Z,19.71
2018-10-01T01:47:23.597Z,19.72
2018-10-01T01:48:23.818Z,19.74
2018-10-01T01:49:23.676Z,19.74
2018-10-01T01:50:23.682Z,19.77
2018-10-01T01:51:23.678Z,19.63
2018-10-01T01:52:23.702Z,19.67
2018-10-01T01:53:23.686Z,19.64
2018-10-01T01:54:23.731Z,19.64
2018-10-01T01:55:23.731Z,19.66
2018-10-01T01:56:23.760Z,19.67
2018-10-01T01:57:23.909Z,19.56
2018-10-01T01:58:23.770Z,19.59
2018-10-01T01:59:23.795Z,19.62
2018-10-01T02:00:23.790Z,19.62
2018-10-01T02:01:23.840Z,19.56
2018-10-01T02:02:24.019Z,19.56
2018-10-01T02:03:23.868Z,19.53
2018-10-01T02:04:23.879Z,19.52
2018-10-01T02:05:23.868Z,19.49
2018-10-01T02:06:23.881Z,19.48
2018-10-01T02:07:23.958Z,19.49
2018-10-01T02:08:23.952Z,19.45
2018-10-01T02:09:24.094Z,19.49
2018-10-01T02:10:23.958Z,19.48
2018-10-01T02:11:23.992Z,19.45
2018-10-01T02:12:24.001Z,19.47
2018-10-01T02:13:24.018Z,19.52
2018-10-01T02:14:24.151Z,19.45
2018-10-01T02:15:24.015Z,19.52
2018-10-01T02:16:24.047Z,19.39
2018-10-01T02:17:24.057Z,19.39
2018-10-01T02:18:24.081Z,19.39
2018-10-01T02:19:24.146Z,19.42
2018-10-01T02:20:24.108Z,19.32
2018-10-01T02:21:24.114Z,19.37
2018-10-01T02:22:24.274Z,19.38
2018-10-01T02:23:24.162Z,19.39
2018-10-01T02:24:24.173Z,19.37
2018-10-01T02:25:24.208Z,19.39
2018-10-01T02:26:24.178Z,19.39
2018-10-01T02:27:24.360Z,19.39
2018-10-01T02:28:24.238Z,19.41
2018-10-01T02:29:24.267Z,19.47
2018-10-01T02:30:24.267Z,19.39
2018-10-01T02:31:24.262Z,19.47
2018-10-01T02:32:24.440Z,19.37
2018-10-01T02:33:24.301Z,19.44
2018-10-01T02:34:24.324Z,19.45
2018-10-01T02:35:24.326Z,19.44
2018-10-01T02:36:24.348Z,19.39
2018-10-01T02:37:24.515Z,19.39
2018-10-01T02:38:24.391Z,19.39
2018-10-01T02:39:24.403Z,19.39
2018-10-01T02:40:24.446Z,19.42
2018-10-01T02:41:24.426Z,19.32
2018-10-01T02:42:24.593Z,19.32
2018-10-01T02:43:24.437Z,19.27
2018-10-01T02:44:24.485Z,19.34
2018-10-01T02:45:24.481Z,19.37
2018-10-01T02:46:24.483Z,19.34
2018-10-01T02:47:24.667Z,19.32
2018-10-01T02:48:24.514Z,19.32
2018-10-01T02:49:24.527Z,19.30
2018-10-01T02:50:24.556Z,19.27
2018-10-01T02:51:24.555Z,19.34
2018-10-01T02:52:24.719Z,19.29
2018-10-01T02:53:24.591Z,19.32
2018-10-01T02:54:24.610Z,19.29
2018-10-01T02:55:24.623Z,19.30
2018-10-01T02:56:24.659Z,19.29
2018-10-01T02:57:24.669Z,19.30
2018-10-01T02:58:24.845Z,19.23
2018-10-01T02:59:24.670Z,19.27
2018-10-01T03:00:24.691Z,19.34
2018-10-01T03:01:24.725Z,19.23
2018-10-01T03:02:24.734Z,19.24
2018-10-01T03:03:24.895Z,19.22
2018-10-01T03:04:24.768Z,19.29
2018-10-01T03:05:24.758Z,19.29
2018-10-01T03:06:24.785Z,19.19
2018-10-01T03:07:24.818Z,19.26
2018-10-01T03:08:24.968Z,19.11
2018-10-01T03:09:24.851Z,19.24
2018-10-01T03:10:24.859Z,19.20
2018-10-01T03:11:24.879Z,19.22
2018-10-01T03:12:25.002Z,19.12
2018-10-01T03:13:25.026Z,19.20
2018-10-01T03:14:24.923Z,19.20
2018-10-01T03:15:24.913Z,19.12
2018-10-01T03:16:24.951Z,19.20
2018-10-01T03:17:24.955Z,19.11
2018-10-01T03:18:25.138Z,19.17
2018-10-01T03:19:24.985Z,19.15
2018-10-01T03:20:25.001Z,19.16
2018-10-01T03:21:25.048Z,19.12
2018-10-01T03:22:25.038Z,19.17
2018-10-01T03:23:25.162Z,19.12
2018-10-01T03:24:25.059Z,19.11
2018-10-01T03:25:25.067Z,19.20
2018-10-01T03:26:25.092Z,19.15
2018-10-01T03:27:25.107Z,19.15
2018-10-01T03:28:25.268Z,19.16
2018-10-01T03:29:25.149Z,19.17
2018-10-01T03:30:25.148Z,19.22
2018-10-01T03:31:25.207Z,19.17
2018-10-01T03:32:25.196Z,19.09
2018-10-01T03:33:25.288Z,19.23
2018-10-01T03:34:25.225Z,19.30
2018-10-01T03:35:25.375Z,19.29
2018-10-01T03:36:25.233Z,19.23
2018-10-01T03:37:25.257Z,19.32
2018-10-01T03:38:25.297Z,19.26
2018-10-01T03:39:25.280Z,19.29
2018-10-01T03:40:25.428Z,19.30
2018-10-01T03:41:25.308Z,19.29
2018-10-01T03:42:25.338Z,19.20
2018-10-01T03:43:25.325Z,19.29
2018-10-01T03:44:25.337Z,19.29
2018-10-01T03:45:25.500Z,19.37
2018-10-01T03:46:25.390Z,19.30
2018-10-01T03:47:25.411Z,19.30
2018-10-01T03:48:25.416Z,19.37
2018-10-01T03:49:25.433Z,19.42
2018-10-01T03:50:25.597Z,19.38
2018-10-01T03:51:25.440Z,19.41
2018-10-01T03:52:25.482Z,19.44
2018-10-01T03:53:25.497Z,19.44
2018-10-01T03:54:25.511Z,19.39
2018-10-01T03:55:25.519Z,19.38
2018-10-01T03:56:25.682Z,19.42
2018-10-01T03:57:25.546Z,19.37
2018-10-01T03:58:25.557Z,19.44
2018-10-01T03:59:25.577Z,19.44
2018-10-01T04:00:25.606Z,19.45
2018-10-01T04:01:25.754Z,19.48
2018-10-01T04:02:25.623Z,19.44
2018-10-01T04:03:25.635Z,19.47
2018-10-01T04:04:25.653Z,19.47
2018-10-01T04:05:25.674Z,19.49
2018-10-01T04:06:25.842Z,19.49
2018-10-01T04:07:25.700Z,19.49
2018-10-01T04:08:25.705Z,19.48
2018-10-01T04:09:25.715Z,19.60
2018-10-01T04:10:25.732Z,19.57
2018-10-01T04:11:25.787Z,19.53
2018-10-01T04:12:25.783Z,19.48
2018-10-01T04:13:25.780Z,19.55
2018-10-01T04:14:25.829Z,19.49
2018-10-01T04:15:25.818Z,19.55
2018-10-01T04:16:25.969Z,19.44
2018-10-01T04:17:25.851Z,19.52
2018-10-01T04:18:25.843Z,19.57
2018-10-01T04:19:25.869Z,19.56
2018-10-01T04:20:25.891Z,19.59
2018-10-01T04:21:26.057Z,19.56
2018-10-01T04:22:25.914Z,19.48
2018-10-01T04:23:25.934Z,19.48
2018-10-01T04:24:25.937Z,19.63
2018-10-01T04:25:25.949Z,19.60
2018-10-01T04:26:26.150Z,19.60
2018-10-01T04:27:25.990Z,19.59
2018-10-01T04:28:25.995Z,19.49
2018-10-01T04:29:26.055Z,19.60
2018-10-01T04:30:26.049Z,19.55
2018-10-01T04:31:26.098Z,19.45
2018-10-01T04:32:26.070Z,19.53
2018-10-01T04:33:26.061Z,19.44
2018-10-01T04:34:26.090Z,19.53
2018-10-01T04:35:26.109Z,19.55
2018-10-01T04:36:26.266Z,19.52
2018-10-01T04:37:26.118Z,19.56
2018-10-01T04:38:26.156Z,19.56
2018-10-01T04:39:26.178Z,19.55
2018-10-01T04:40:26.197Z,19.62
2018-10-01T04:41:26.356Z,19.52
2018-10-01T04:42:26.227Z,19.56
2018-10-01T04:43:26.256Z,19.55
2018-10-01T04:44:26.261Z,19.56
2018-10-01T04:45:26.274Z,19.55
2018-10-01T04:46:26.320Z,19.45
2018-10-01T04:47:26.285Z,19.53
2018-10-01T04:48:26.290Z,19.48
2018-10-01T04:49:26.298Z,19.49
2018-10-01T04:50:26.347Z,19.47
2018-10-01T04:51:26.418Z,19.53
2018-10-01T04:52:26.355Z,19.52
2018-10-01T04:53:26.373Z,19.49
2018-10-01T04:54:26.396Z,19.48
2018-10-01T04:55:26.419Z,19.56
2018-10-01T04:56:26.492Z,19.56
2018-10-01T04:57:26.477Z,19.56
2018-10-01T04:58:26.495Z,19.52
2018-10-01T04:59:26.461Z,19.57
2018-10-01T05:00:26.483Z,19.52
2018-10-01T05:01:26.656Z,19.48
2018-10-01T05:02:26.516Z,19.52
2018-10-01T05:03:26.529Z,19.45
2018-10-01T05:04:26.536Z,19.45
2018-10-01T05:05:26.538Z,19.56
2018-10-01T05:06:26.631Z,19.47
2018-10-01T05:07:26.566Z,19.48
2018-10-01T05:08:26.598Z,19.47
2018-10-01T05:09:26.622Z,19.47
2018-10-01T05:10:26.626Z,19.45
2018-10-01T05:11:26.787Z,19.49
2018-10-01T05:12:26.655Z,19.45
2018-10-01T05:13:26.696Z,19.48
2018-10-01T05:14:26.729Z,19.45
2018-10-01T05:15:26.700Z,19.49
2018-10-01T05:16:26.717Z,19.53
2018-10-01T05:17:26.745Z,19.47
2018-10-01T05:18:26.735Z,19.42
2018-10-01T05:19:26.754Z,19.53
2018-10-01T05:20:26.768Z,19.45
2018-10-01T05:21:26.826Z,19.49
2018-10-01T05:22:26.794Z,19.47
2018-10-01T05:23:26.830Z,19.48
2018-10-01T05:24:26.854Z,19.39
2018-10-01T05:25:26.849Z,19.37
2018-10-01T05:26:26.869Z,19.34
2018-10-01T05:27:27.034Z,19.38
2018-10-01T05:28:26.903Z,19.39
2018-10-01T05:29:26.914Z,19.30
2018-10-01T05:30:26.929Z,19.34
2018-10-01T05:31:26.942Z,19.32
2018-10-01T05:32:26.955Z,19.32
2018-10-01T05:33:27.120Z,19.29
2018-10-01T05:34:26.978Z,19.37
2018-10-01T05:35:27.034Z,19.29
2018-10-01T05:36:27.011Z,19.27
2018-10-01T05:37:27.051Z,19.37
2018-10-01T05:38:27.115Z,19.34
2018-10-01T05:39:27.063Z,19.35
2018-10-01T05:40:27.070Z,19.29
2018-10-01T05:41:27.099Z,19.29
2018-10-01T05:42:27.101Z,19.35
2018-10-01T05:43:27.266Z,19.30
2018-10-01T05:44:27.114Z,19.29
2018-10-01T05:45:27.136Z,19.35
2018-10-01T05:46:27.143Z,19.32
2018-10-01T05:47:27.177Z,19.29
2018-10-01T05:48:27.238Z,19.35
2018-10-01T05:49:27.193Z,19.32
2018-10-01T05:50:27.232Z,19.34
2018-10-01T05:51:27.241Z,19.32
2018-10-01T05:52:27.262Z,19.35
2018-10-01T05:53:27.323Z,19.29
2018-10-01T05:54:27.281Z,19.34
2018-10-01T05:55:27.293Z,19.29
2018-10-01T05:56:27.293Z,19.30
2018-10-01T05:57:27.328Z,19.35
2018-10-01T05:58:27.400Z,19.38
2018-10-01T05:59:27.540Z,19.30
2018-10-01T06:00:27.414Z,19.37
2018-10-01T06:01:27.393Z,19.42
2018-10-01T06:02:27.394Z,19.37
2018-10-01T06:03:27.400Z,19.42
2018-10-01T06:04:27.563Z,19.44
2018-10-01T06:05:27.447Z,19.48
2018-10-01T06:06:27.461Z,19.45
2018-10-01T06:07:27.479Z,19.41
2018-10-01T06:08:27.522Z,19.44
2018-10-01T06:09:27.660Z,19.37
2018-10-01T06:10:27.539Z,19.47
2018-10-01T06:11:27.537Z,19.38
2018-10-01T06:12:27.580Z,19.52
2018-10-01T06:13:27.567Z,19.38
2018-10-01T06:14:27.732Z,19.48
2018-10-01T06:15:27.570Z,19.42
2018-10-01T06:16:27.613Z,19.41
2018-10-01T06:17:27.606Z,19.45
2018-10-01T06:18:27.645Z,19.48
2018-10-01T06:19:27.639Z,19.47
2018-10-01T06:20:27.658Z,19.47
2018-10-01T06:21:27.669Z,19.45
2018-10-01T06:22:27.740Z,19.53
2018-10-01T06:23:27.716Z,19.49
2018-10-01T06:24:27.732Z,19.49
2018-10-01T06:25:27.757Z,19.42
2018-10-01T06:26:27.757Z,19.48
2018-10-01T06:27:27.906Z,19.49
2018-10-01T06:28:27.794Z,19.48
2018-10-01T06:29:27.784Z,19.39
2018-10-01T06:30:27.811Z,19.44
2018-10-01T06:31:27.809Z,19.45
2018-10-01T06:33:27.853Z,19.52
2018-10-01T06:34:27.863Z,19.45
2018-10-01T06:35:27.891Z,19.47
2018-10-01T06:36:27.894Z,19.48
2018-10-01T06:37:27.966Z,19.45
2018-10-01T06:38:28.067Z,19.42
2018-10-01T06:39:27.967Z,19.44
2018-10-01T06:40:27.960Z,19.44
2018-10-01T06:41:28.093Z,19.39
2018-10-01T06:42:28.038Z,19.35
2018-10-01T06:43:28.150Z,19.30
2018-10-01T06:44:28.043Z,19.34
2018-10-01T06:45:28.034Z,19.35
2018-10-01T06:46:28.058Z,19.35
2018-10-01T06:47:28.065Z,19.34
2018-10-01T06:48:28.210Z,19.27
2018-10-01T06:49:28.105Z,19.41
2018-10-01T06:50:28.112Z,19.27
2018-10-01T06:51:28.128Z,19.23
2018-10-01T06:52:28.189Z,19.24
2018-10-01T06:53:28.197Z,19.24
2018-10-01T06:54:28.166Z,19.30
2018-10-01T06:55:28.173Z,19.27
2018-10-01T06:56:28.182Z,19.35
2018-10-01T06:57:28.223Z,19.35
2018-10-01T06:58:28.334Z,19.34
2018-10-01T06:59:28.248Z,19.32
2018-10-01T07:00:28.258Z,19.30
2018-10-01T07:01:28.270Z,19.30
2018-10-01T07:02:28.280Z,19.37
2018-10-01T07:03:28.455Z,19.30
2018-10-01T07:04:28.316Z,19.34
2018-10-01T07:05:28.396Z,19.35
2018-10-01T07:06:28.346Z,19.30
2018-10-01T07:07:28.359Z,19.30
2018-10-01T07:08:28.467Z,19.35
2018-10-01T07:09:28.394Z,19.29
2018-10-01T07:10:28.407Z,19.30
2018-10-01T07:11:28.608Z,19.34
2018-10-01T07:12:28.451Z,19.30
2018-10-01T07:13:28.513Z,19.37
2018-10-01T07:14:28.450Z,19.37
2018-10-01T07:15:28.479Z,19.42
2018-10-01T07:16:28.771Z,19.37
2018-10-01T07:17:28.642Z,19.37
2018-10-01T07:18:28.523Z,19.37
2018-10-01T07:19:28.537Z,19.39
2018-10-01T07:20:28.551Z,19.41
2018-10-01T07:21:28.662Z,19.37
2018-10-01T07:22:28.645Z,19.39
2018-10-01T07:23:28.779Z,19.41
2018-10-01T07:24:28.599Z,19.44
2018-10-01T07:25:28.642Z,19.42
2018-10-01T07:26:28.729Z,19.44
2018-10-01T07:27:28.661Z,19.44
2018-10-01T07:28:28.683Z,19.42
2018-10-01T07:29:28.677Z,19.47
2018-10-01T07:30:28.705Z,19.48
2018-10-01T07:31:28.762Z,19.42
2018-10-01T07:32:28.727Z,19.45
2018-10-01T07:33:28.749Z,19.42
2018-10-01T07:34:28.753Z,19.44
2018-10-01T07:35:28.813Z,19.45
2018-10-01T07:36:28.964Z,19.35
2018-10-01T07:37:28.798Z,19.47
2018-10-01T07:38:28.815Z,19.45
2018-10-01T07:39:28.831Z,19.42
2018-10-01T07:40:28.861Z,19.39
2018-10-01T07:41:28.972Z,19.48
2018-10-01T07:42:28.881Z,19.34
2018-10-01T07:43:28.890Z,19.48
2018-10-01T07:44:28.913Z,19.42
2018-10-01T07:45:28.921Z,19.48
2018-10-01T07:46:29.097Z,19.44
2018-10-01T07:47:28.949Z,19.39
2018-10-01T07:48:28.953Z,19.47
2018-10-01T07:49:28.994Z,19.38
2018-10-01T07:50:29.014Z,19.44
2018-10-01T07:51:29.150Z,19.48
2018-10-01T07:52:29.029Z,19.45
2018-10-01T07:53:29.101Z,19.48
2018-10-01T07:54:29.115Z,19.42
2018-10-01T07:55:29.080Z,19.39
2018-10-01T07:56:29.086Z,19.44
2018-10-01T07:57:29.135Z,19.42
2018-10-01T07:58:29.118Z,19.48
2018-10-01T07:59:29.289Z,19.41
2018-10-01T08:00:29.236Z,19.42
2018-10-01T08:01:29.173Z,19.38
2018-10-01T08:02:29.283Z,19.38
2018-10-01T08:03:29.204Z,19.45
2018-10-01T08:04:29.268Z,19.42
2018-10-01T08:05:29.216Z,19.37
2018-10-01T08:06:29.250Z,19.45
2018-10-01T08:07:29.235Z,19.35
2018-10-01T08:08:29.308Z,19.45
2018-10-01T08:09:29.499Z,19.42
2018-10-01T08:10:29.308Z,19.39
2018-10-01T08:11:29.317Z,19.38
2018-10-01T08:12:29.321Z,19.39
2018-10-01T08:13:29.338Z,19.39
2018-10-01T08:14:29.541Z,19.42
2018-10-01T08:15:29.366Z,19.42
2018-10-01T08:16:29.400Z,19.42
2018-10-01T08:17:29.388Z,19.47
2018-10-01T08:18:29.407Z,19.41
2018-10-01T08:19:29.617Z,19.47
2018-10-01T08:20:29.521Z,19.48
2018-10-01T08:21:29.502Z,19.44
2018-10-01T08:22:29.486Z,19.45
2018-10-01T08:23:29.524Z,19.38
2018-10-01T08:24:29.572Z,19.49
2018-10-01T08:25:29.529Z,19.45
2018-10-01T08:26:29.634Z,19.48
2018-10-01T08:27:29.553Z,19.48
2018-10-01T08:28:29.588Z,19.48
2018-10-01T08:29:29.674Z,19.45
2018-10-01T08:30:29.601Z,19.49
2018-10-01T08:31:29.659Z,19.48
2018-10-01T08:32:29.705Z,19.48
2018-10-01T08:33:29.663Z,19.55
2018-10-01T08:34:29.648Z,19.45
2018-10-01T08:35:29.720Z,19.45
2018-10-01T08:36:29.845Z,19.53
2018-10-01T08:37:29.712Z,19.49
2018-10-01T08:38:29.768Z,19.49
2018-10-01T08:39:29.729Z,19.53
2018-10-01T08:40:29.771Z,19.45
2018-10-01T08:41:29.883Z,19.48
2018-10-01T08:42:29.784Z,19.49
2018-10-01T08:43:29.783Z,19.44
2018-10-01T08:44:29.879Z,19.48
2018-10-01T08:45:29.829Z,19.48
2018-10-01T08:46:29.986Z,19.47
2018-10-01T08:47:29.895Z,19.49
2018-10-01T08:48:29.865Z,19.45
2018-10-01T08:49:29.872Z,19.49
2018-10-01T08:50:29.923Z,19.45
2018-10-01T08:51:29.978Z,19.55
2018-10-01T08:52:29.926Z,19.48
2018-10-01T08:53:29.996Z,19.56
2018-10-01T08:54:29.936Z,19.52
2018-10-01T08:55:30.011Z,19.45
2018-10-01T08:56:30.111Z,19.56
2018-10-01T08:57:29.979Z,19.56
2018-10-01T08:58:30.039Z,19.62
2018-10-01T08:59:30.139Z,19.59
2018-10-01T09:00:30.043Z,19.57
2018-10-01T09:01:30.058Z,19.64
2018-10-01T09:02:30.145Z,19.62
2018-10-01T09:03:30.083Z,19.70
2018-10-01T09:04:30.167Z,19.66
2018-10-01T09:05:30.162Z,19.66
2018-10-01T09:06:30.126Z,19.64
2018-10-01T09:07:30.154Z,19.67
2018-10-01T09:08:30.233Z,19.74
2018-10-01T09:09:30.173Z,19.78
2018-10-01T09:10:30.216Z,19.81
2018-10-01T09:11:30.340Z,19.77
2018-10-01T09:12:30.226Z,19.75
2018-10-01T09:13:30.225Z,19.81
2018-10-01T09:14:30.328Z,19.84
2018-10-01T09:15:30.281Z,19.82
2018-10-01T09:16:30.330Z,19.82
2018-10-01T09:17:30.325Z,19.90
2018-10-01T09:18:30.330Z,19.97
2018-10-01T09:19:30.322Z,19.90
2018-10-01T09:20:30.361Z,19.94
2018-10-01T09:21:30.637Z,20.03
2018-10-01T09:22:30.360Z,20.04
2018-10-01T09:23:30.487Z,20.04
2018-10-01T09:24:30.446Z,20.14
2018-10-01T09:25:30.428Z,20.17
2018-10-01T09:26:30.481Z,20.22
2018-10-01T09:27:30.601Z,20.32
2018-10-01T09:28:30.473Z,20.29
2018-10-01T09:29:30.523Z,20.37
2018-10-01T09:30:30.488Z,20.40
2018-10-01T09:31:30.513Z,20.42
2018-10-01T09:32:30.681Z,20.52
2018-10-01T09:33:30.589Z,20.63
2018-10-01T09:34:30.563Z,20.56
2018-10-01T09:35:30.641Z,20.66
2018-10-01T09:36:30.591Z,20.74
2018-10-01T09:37:30.652Z,20.73
2018-10-01T09:38:30.632Z,20.78
2018-10-01T09:39:30.640Z,20.74
2018-10-01T09:40:30.704Z,20.86
2018-10-01T09:41:30.649Z,20.93
2018-10-01T09:42:30.794Z,20.92
2018-10-01T09:43:30.715Z,21.05
2018-10-01T09:44:30.739Z,21.07
2018-10-01T09:45:30.737Z,21.19
2018-10-01T09:46:30.817Z,21.17
2018-10-01T09:47:30.750Z,21.28
2018-10-01T09:48:30.833Z,21.30
2018-10-01T09:49:30.839Z,21.32
2018-10-01T09:50:30.886Z,21.45
2018-10-01T09:51:30.931Z,21.50
2018-10-01T09:52:30.955Z,21.53
2018-10-01T09:53:30.866Z,21.63
2018-10-01T09:54:30.876Z,21.62
2018-10-01T09:55:30.884Z,21.68
2018-10-01T09:56:31.017Z,21.74
2018-10-01T09:57:30.935Z,21.77
2018-10-01T09:58:30.994Z,21.78
2018-10-01T09:59:31.081Z,21.89
2018-10-01T10:00:30.964Z,22.00
2018-10-01T10:01:30.990Z,21.96
2018-10-01T10:02:31.063Z,22.07
2018-10-01T10:03:31.038Z,22.08
2018-10-01T10:04:31.275Z,22.12
2018-10-01T10:05:31.060Z,22.08
2018-10-01T10:06:31.103Z,21.96
2018-10-01T10:07:31.095Z,22.03
2018-10-01T10:08:31.179Z,21.94
2018-10-01T10:09:31.261Z,21.96
2018-10-01T10:10:31.161Z,22.15
2018-10-01T10:11:31.192Z,22.15
2018-10-01T10:12:31.165Z,22.07
2018-10-01T10:13:31.189Z,22.08
2018-10-01T10:14:31.381Z,22.22
2018-10-01T10:15:31.224Z,22.33
2018-10-01T10:16:31.319Z,22.40
2018-10-01T10:17:31.265Z,22.40
2018-10-01T10:18:31.351Z,22.36
2018-10-01T10:19:31.432Z,22.34
2018-10-01T10:20:31.363Z,22.40
2018-10-01T10:21:31.317Z,22.33
2018-10-01T10:22:31.439Z,22.30
2018-10-01T10:23:31.366Z,22.36
2018-10-01T10:24:31.433Z,22.34
2018-10-01T10:25:31.420Z,22.40
2018-10-01T10:26:31.549Z,22.30
2018-10-01T10:27:31.405Z,22.31
2018-10-01T10:28:31.529Z,22.28
2018-10-01T10:29:31.441Z,22.26
2018-10-01T10:30:31.467Z,22.18
2018-10-01T10:31:31.636Z,22.26
2018-10-01T10:32:31.561Z,22.25
2018-10-01T10:33:31.521Z,22.19
2018-10-01T10:34:31.593Z,22.26
2018-10-01T10:35:31.567Z,22.33
2018-10-01T10:36:31.612Z,22.30
2018-10-01T10:37:31.583Z,22.31
2018-10-01T10:38:31.686Z,22.31
2018-10-01T10:39:31.836Z,22.15
2018-10-01T10:40:31.635Z,22.16
2018-10-01T10:41:31.641Z,22.03
2018-10-01T10:42:31.674Z,21.96
2018-10-01T10:43:31.683Z,21.97
2018-10-01T10:44:31.858Z,21.94
2018-10-01T10:45:31.710Z,22.07
2018-10-01T10:46:31.750Z,21.89
2018-10-01T10:47:31.791Z,21.85
2018-10-01T10:48:31.776Z,21.85
2018-10-01T10:49:31.920Z,21.66
2018-10-01T10:50:31.897Z,21.63
2018-10-01T10:51:31.818Z,21.56
2018-10-01T10:52:31.827Z,21.44
2018-10-01T10:53:31.853Z,21.40
2018-10-01T10:54:31.958Z,21.33
2018-10-01T10:55:31.869Z,21.19
2018-10-01T10:56:31.984Z,21.19
2018-10-01T10:57:31.909Z,21.08
2018-10-01T10:58:31.932Z,21.14
2018-10-01T10:59:32.107Z,21.08
2018-10-01T11:00:31.968Z,21.13
2018-10-01T11:01:31.985Z,21.11
2018-10-01T11:02:32.059Z,21.14
2018-10-01T11:03:32.006Z,21.20
2018-10-01T11:04:32.247Z,21.17
2018-10-01T11:05:32.049Z,21.23
2018-10-01T11:06:32.052Z,21.15
2018-10-01T11:07:32.071Z,21.19
2018-10-01T11:08:32.110Z,21.17
2018-10-01T11:09:35.718Z,21.35
2018-10-01T11:10:32.118Z,21.44
2018-10-01T11:11:32.142Z,21.44
2018-10-01T11:12:32.146Z,21.43
2018-10-01T11:13:32.170Z,21.45
2018-10-01T11:14:32.386Z,21.54
2018-10-01T11:15:32.346Z,21.58
2018-10-01T11:16:32.207Z,21.53
2018-10-01T11:17:32.226Z,21.56
2018-10-01T11:18:32.342Z,21.60
2018-10-01T11:19:32.287Z,21.59
2018-10-01T11:20:32.490Z,21.59
2018-10-01T11:21:32.493Z,21.56
2018-10-01T11:22:32.342Z,21.65
2018-10-01T11:23:32.347Z,21.69
2018-10-01T11:24:32.361Z,21.60
2018-10-01T11:25:32.617Z,21.69
2018-10-01T11:26:32.375Z,21.77
2018-10-01T11:27:32.464Z,21.89
2018-10-01T11:28:32.429Z,21.91
2018-10-01T11:29:32.431Z,21.99
2018-10-01T11:30:32.459Z,22.04
2018-10-01T11:31:32.627Z,22.00
2018-10-01T11:32:32.497Z,22.12
2018-10-01T11:33:32.571Z,22.21
2018-10-01T11:34:32.583Z,22.38
2018-10-01T11:35:32.546Z,22.51
2018-10-01T11:36:32.614Z,22.36
2018-10-01T11:37:32.717Z,22.38
2018-10-01T11:38:32.575Z,22.43
2018-10-01T11:39:32.603Z,22.38
2018-10-01T11:40:32.639Z,22.51
2018-10-01T11:41:32.631Z,22.62
2018-10-01T11:42:32.718Z,22.65
2018-10-01T11:43:32.736Z,22.71
2018-10-01T11:44:32.676Z,22.78
2018-10-01T11:45:32.735Z,22.86
2018-10-01T11:46:32.722Z,22.86
2018-10-01T11:47:32.739Z,22.93
2018-10-01T11:48:32.812Z,23.07
2018-10-01T11:49:32.766Z,23.10
2018-10-01T11:50:32.835Z,23.18
2018-10-01T11:51:32.884Z,23.08
2018-10-01T11:52:32.818Z,23.26
2018-10-01T11:53:32.993Z,23.48
2018-10-01T11:54:32.853Z,23.59
2018-10-01T11:55:32.887Z,23.66
2018-10-01T11:56:32.890Z,23.64
2018-10-01T11:57:32.944Z,23.84
2018-10-01T11:58:33.073Z,24.03
2018-10-01T11:59:32.952Z,24.04
2018-10-01T12:00:32.970Z,24.11
2018-10-01T12:01:32.999Z,24.14
2018-10-01T12:02:33.114Z,24.36
2018-10-01T12:03:33.083Z,24.38
2018-10-01T12:04:33.033Z,24.53
2018-10-01T12:05:33.093Z,24.71
2018-10-01T12:06:33.135Z,24.93
2018-10-01T12:07:33.098Z,24.99
2018-10-01T12:08:33.217Z,25.14
2018-10-01T12:09:33.170Z,25.31
2018-10-01T12:10:33.224Z,25.31
2018-10-01T12:11:33.157Z,25.44
2018-10-01T12:12:33.166Z,25.66
2018-10-01T12:13:33.350Z,25.62
2018-10-01T12:14:33.198Z,25.54
2018-10-01T12:15:33.296Z,25.68
2018-10-01T12:16:33.254Z,25.48
2018-10-01T12:17:33.252Z,25.43
2018-10-01T12:18:33.438Z,25.26
2018-10-01T12:19:33.327Z,25.15
2018-10-01T12:20:33.332Z,25.30
2018-10-01T12:21:33.349Z,25.40
2018-10-01T12:22:33.363Z,25.52
2018-10-01T12:23:33.540Z,25.56
2018-10-01T12:24:33.444Z,25.73
2018-10-01T12:25:33.431Z,25.83
2018-10-01T12:26:33.440Z,25.74
2018-10-01T12:27:33.558Z,25.91
2018-10-01T12:28:33.512Z,25.92
2018-10-01T12:29:33.482Z,25.93
2018-10-01T12:30:33.556Z,26.13
2018-10-01T12:31:33.557Z,26.29
2018-10-01T12:32:33.563Z,26.30
2018-10-01T12:33:33.743Z,26.31
2018-10-01T12:34:33.577Z,26.33
2018-10-01T12:35:33.598Z,26.30
2018-10-01T12:36:33.625Z,26.36
2018-10-01T12:37:33.655Z,26.51
2018-10-01T12:38:33.802Z,26.61
2018-10-01T12:39:33.770Z,26.59
2018-10-01T12:40:33.710Z,26.59
2018-10-01T12:41:33.709Z,26.51
2018-10-01T12:42:33.780Z,26.59
2018-10-01T12:43:33.760Z,26.68
2018-10-01T12:44:33.929Z,26.68
2018-10-01T12:45:33.865Z,26.68
2018-10-01T12:46:33.847Z,26.71
2018-10-01T12:47:33.850Z,26.86
2018-10-01T12:48:33.876Z,26.78
2018-10-01T12:50:33.993Z,26.78
2018-10-01T12:51:33.934Z,26.78
2018-10-01T12:52:33.976Z,26.83
2018-10-01T12:53:33.974Z,26.85
2018-10-01T12:54:34.018Z,26.92